sensor_id;sensor_type;location;lat;lon;timestamp;P1;durP1;ratioP1;P2;durP2;ratioP2
41059;SDS011;26811;53.160;8.202;2022-08-03T00:03:31;25.52;;;10.68;;
41059;SDS011;26811;53.160;8.202;2022-08-03T00:08:32;23.13;;;10.90;;
41059;SDS011;26811;53.160;8.202;2022-08-03T00:13:33;29.33;;;10.63;;
41059;SDS011;26811;53.160;8.202;2022-08-03T00:18:33;39.47;;;11.60;;
41059;SDS011;26811;53.160;8.202;2022-08-03T00:23:34;24.60;;;10.05;;
41059;SDS011;26811;53.160;8.202;2022-08-03T00:28:35;24.92;;;10.50;;
41059;SDS011;26811;53.160;8.202;2022-08-03T00:33:35;19.65;;;9.30;;
41059;SDS011;26811;53.160;8.202;2022-08-03T00:38:36;22.02;;;10.90;;
41059;SDS011;26811;53.160;8.202;2022-08-03T00:43:36;34.03;;;11.20;;
41059;SDS011;26811;53.160;8.202;2022-08-03T00:48:37;24.05;;;11.60;;
41059;SDS011;26811;53.160;8.202;2022-08-03T00:53:38;20.77;;;11.10;;
41059;SDS011;26811;53.160;8.202;2022-08-03T00:58:38;20.92;;;9.85;;
41059;SDS011;26811;53.160;8.202;2022-08-03T01:03:39;28.40;;;11.07;;
41059;SDS011;26811;53.160;8.202;2022-08-03T01:08:45;22.98;;;10.82;;
41059;SDS011;26811;53.160;8.202;2022-08-03T01:13:58;22.88;;;10.80;;
41059;SDS011;26811;53.160;8.202;2022-08-03T01:30:09;26.80;;;11.38;;
41059;SDS011;26811;53.160;8.202;2022-08-03T01:35:15;31.02;;;12.18;;
41059;SDS011;26811;53.160;8.202;2022-08-03T01:40:21;26.92;;;11.25;;
41059;SDS011;26811;53.160;8.202;2022-08-03T01:45:25;29.75;;;11.60;;
41059;SDS011;26811;53.160;8.202;2022-08-03T01:50:28;25.30;;;12.23;;
41059;SDS011;26811;53.160;8.202;2022-08-03T01:55:30;28.83;;;10.90;;
41059;SDS011;26811;53.160;8.202;2022-08-03T02:00:36;27.88;;;11.57;;
41059;SDS011;26811;53.160;8.202;2022-08-03T02:05:39;27.55;;;11.55;;
41059;SDS011;26811;53.160;8.202;2022-08-03T02:10:41;29.83;;;11.65;;
41059;SDS011;26811;53.160;8.202;2022-08-03T02:15:45;28.17;;;11.05;;
41059;SDS011;26811;53.160;8.202;2022-08-03T02:20:46;29.13;;;11.07;;
41059;SDS011;26811;53.160;8.202;2022-08-03T02:25:49;26.58;;;11.80;;
41059;SDS011;26811;53.160;8.202;2022-08-03T02:30:55;23.92;;;11.18;;
41059;SDS011;26811;53.160;8.202;2022-08-03T02:35:59;31.35;;;11.77;;
41059;SDS011;26811;53.160;8.202;2022-08-03T02:41:04;34.17;;;12.18;;
41059;SDS011;26811;53.160;8.202;2022-08-03T02:46:08;28.23;;;12.27;;
41059;SDS011;26811;53.160;8.202;2022-08-03T02:51:10;28.15;;;12.10;;
41059;SDS011;26811;53.160;8.202;2022-08-03T02:56:11;36.63;;;12.68;;
41059;SDS011;26811;53.160;8.202;2022-08-03T03:01:12;30.33;;;13.13;;
41059;SDS011;26811;53.160;8.202;2022-08-03T03:06:14;32.25;;;12.52;;
41059;SDS011;26811;53.160;8.202;2022-08-03T03:11:17;31.02;;;12.35;;
41059;SDS011;26811;53.160;8.202;2022-08-03T03:16:20;29.48;;;13.98;;
41059;SDS011;26811;53.160;8.202;2022-08-03T03:21:21;34.40;;;14.40;;
41059;SDS011;26811;53.160;8.202;2022-08-03T03:26:23;37.63;;;15.07;;
41059;SDS011;26811;53.160;8.202;2022-08-03T03:31:25;30.83;;;14.02;;
41059;SDS011;26811;53.160;8.202;2022-08-03T03:36:25;37.50;;;14.32;;
41059;SDS011;26811;53.160;8.202;2022-08-03T03:41:26;35.92;;;15.13;;
41059;SDS011;26811;53.160;8.202;2022-08-03T03:46:27;41.00;;;17.23;;
41059;SDS011;26811;53.160;8.202;2022-08-03T03:51:27;45.20;;;17.88;;
41059;SDS011;26811;53.160;8.202;2022-08-03T03:56:28;47.90;;;17.25;;
41059;SDS011;26811;53.160;8.202;2022-08-03T04:01:29;39.65;;;18.27;;
41059;SDS011;26811;53.160;8.202;2022-08-03T04:06:30;43.70;;;18.13;;
41059;SDS011;26811;53.160;8.202;2022-08-03T04:11:50;45.67;;;17.95;;
41059;SDS011;26811;53.160;8.202;2022-08-03T04:21:55;40.30;;;18.23;;
41059;SDS011;26811;53.160;8.202;2022-08-03T04:26:59;49.45;;;17.55;;
41059;SDS011;26811;53.160;8.202;2022-08-03T04:32:04;45.95;;;19.15;;
41059;SDS011;26811;53.160;8.202;2022-08-03T04:37:08;44.23;;;19.53;;
41059;SDS011;26811;53.160;8.202;2022-08-03T04:42:11;43.75;;;18.98;;
41059;SDS011;26811;53.160;8.202;2022-08-03T04:47:13;41.80;;;20.35;;
41059;SDS011;26811;53.160;8.202;2022-08-03T04:52:15;45.35;;;20.63;;
41059;SDS011;26811;53.160;8.202;2022-08-03T04:57:15;51.22;;;22.20;;
41059;SDS011;26811;53.160;8.202;2022-08-03T05:02:17;51.92;;;20.80;;
41059;SDS011;26811;53.160;8.202;2022-08-03T05:07:17;49.40;;;22.42;;
41059;SDS011;26811;53.160;8.202;2022-08-03T05:12:18;51.90;;;22.08;;
41059;SDS011;26811;53.160;8.202;2022-08-03T05:17:18;53.22;;;21.83;;
41059;SDS011;26811;53.160;8.202;2022-08-03T05:22:19;58.47;;;22.70;;
41059;SDS011;26811;53.160;8.202;2022-08-03T05:27:21;49.50;;;23.17;;
41059;SDS011;26811;53.160;8.202;2022-08-03T05:32:21;57.63;;;22.55;;
41059;SDS011;26811;53.160;8.202;2022-08-03T05:37:22;53.83;;;20.98;;
41059;SDS011;26811;53.160;8.202;2022-08-03T05:42:22;60.55;;;21.20;;
41059;SDS011;26811;53.160;8.202;2022-08-03T05:47:23;47.35;;;20.30;;
41059;SDS011;26811;53.160;8.202;2022-08-03T05:52:23;46.90;;;19.17;;
41059;SDS011;26811;53.160;8.202;2022-08-03T05:57:24;42.10;;;15.65;;
41059;SDS011;26811;53.160;8.202;2022-08-03T06:02:25;45.08;;;15.13;;
41059;SDS011;26811;53.160;8.202;2022-08-03T06:07:26;42.83;;;13.97;;
41059;SDS011;26811;53.160;8.202;2022-08-03T06:12:28;46.37;;;13.87;;
41059;SDS011;26811;53.160;8.202;2022-08-03T06:17:29;31.87;;;12.80;;
41059;SDS011;26811;53.160;8.202;2022-08-03T06:22:29;47.65;;;13.35;;
41059;SDS011;26811;53.160;8.202;2022-08-03T06:27:30;43.47;;;12.43;;
41059;SDS011;26811;53.160;8.202;2022-08-03T06:32:30;42.72;;;11.88;;
41059;SDS011;26811;53.160;8.202;2022-08-03T06:37:42;39.83;;;11.60;;
41059;SDS011;26811;53.160;8.202;2022-08-03T06:42:50;48.47;;;11.38;;
41059;SDS011;26811;53.160;8.202;2022-08-03T06:48:10;37.47;;;10.77;;
41059;SDS011;26811;53.160;8.202;2022-08-03T06:53:11;39.80;;;10.70;;
41059;SDS011;26811;53.160;8.202;2022-08-03T06:58:12;48.77;;;10.87;;
41059;SDS011;26811;53.160;8.202;2022-08-03T07:03:12;45.27;;;10.63;;
41059;SDS011;26811;53.160;8.202;2022-08-03T07:08:14;43.10;;;9.32;;
41059;SDS011;26811;53.160;8.202;2022-08-03T07:13:14;38.00;;;9.33;;
41059;SDS011;26811;53.160;8.202;2022-08-03T07:18:15;35.30;;;8.83;;
41059;SDS011;26811;53.160;8.202;2022-08-03T07:23:15;37.33;;;8.93;;
41059;SDS011;26811;53.160;8.202;2022-08-03T07:28:16;38.13;;;8.77;;
41059;SDS011;26811;53.160;8.202;2022-08-03T07:33:18;45.58;;;9.82;;
41059;SDS011;26811;53.160;8.202;2022-08-03T07:38:18;38.60;;;8.13;;
41059;SDS011;26811;53.160;8.202;2022-08-03T07:43:19;37.92;;;7.93;;
41059;SDS011;26811;53.160;8.202;2022-08-03T07:48:19;38.80;;;7.35;;
41059;SDS011;26811;53.160;8.202;2022-08-03T07:53:20;29.65;;;6.72;;
41059;SDS011;26811;53.160;8.202;2022-08-03T08:03:22;36.00;;;7.40;;
41059;SDS011;26811;53.160;8.202;2022-08-03T08:13:23;35.40;;;7.03;;
41059;SDS011;26811;53.160;8.202;2022-08-03T08:23:24;26.63;;;6.93;;
41059;SDS011;26811;53.160;8.202;2022-08-03T08:33:25;39.37;;;7.10;;
41059;SDS011;26811;53.160;8.202;2022-08-03T08:38:26;26.88;;;6.32;;
41059;SDS011;26811;53.160;8.202;2022-08-03T08:48:27;31.40;;;6.07;;
41059;SDS011;26811;53.160;8.202;2022-08-03T08:53:28;33.38;;;6.22;;
41059;SDS011;26811;53.160;8.202;2022-08-03T08:58:36;37.10;;;5.38;;
41059;SDS011;26811;53.160;8.202;2022-08-03T09:03:39;50.10;;;6.43;;
41059;SDS011;26811;53.160;8.202;2022-08-03T09:08:40;33.38;;;4.88;;
41059;SDS011;26811;53.160;8.202;2022-08-03T09:18:43;29.67;;;5.07;;
41059;SDS011;26811;53.160;8.202;2022-08-03T09:23:46;36.75;;;4.97;;
41059;SDS011;26811;53.160;8.202;2022-08-03T09:33:56;27.35;;;4.82;;
41059;SDS011;26811;53.160;8.202;2022-08-03T09:39:03;30.35;;;4.35;;
41059;SDS011;26811;53.160;8.202;2022-08-03T09:44:11;42.33;;;4.47;;
41059;SDS011;26811;53.160;8.202;2022-08-03T09:54:12;34.57;;;4.67;;
41059;SDS011;26811;53.160;8.202;2022-08-03T09:59:28;24.63;;;4.97;;
41059;SDS011;26811;53.160;8.202;2022-08-03T10:04:30;32.20;;;4.70;;
41059;SDS011;26811;53.160;8.202;2022-08-03T10:09:34;25.48;;;4.57;;
41059;SDS011;26811;53.160;8.202;2022-08-03T10:14:36;45.28;;;5.85;;
41059;SDS011;26811;53.160;8.202;2022-08-03T10:19:38;44.70;;;4.90;;
41059;SDS011;26811;53.160;8.202;2022-08-03T10:24:48;33.20;;;4.68;;
41059;SDS011;26811;53.160;8.202;2022-08-03T10:29:59;37.35;;;4.35;;
41059;SDS011;26811;53.160;8.202;2022-08-03T10:35:09;44.88;;;4.75;;
41059;SDS011;26811;53.160;8.202;2022-08-03T10:40:12;24.45;;;4.30;;
41059;SDS011;26811;53.160;8.202;2022-08-03T10:45:20;33.92;;;4.47;;
41059;SDS011;26811;53.160;8.202;2022-08-03T10:50:25;29.73;;;4.55;;
41059;SDS011;26811;53.160;8.202;2022-08-03T10:55:34;32.78;;;5.05;;
41059;SDS011;26811;53.160;8.202;2022-08-03T11:01:02;33.60;;;4.85;;
41059;SDS011;26811;53.160;8.202;2022-08-03T11:06:13;38.25;;;5.25;;
41059;SDS011;26811;53.160;8.202;2022-08-03T11:16:19;42.47;;;4.60;;
41059;SDS011;26811;53.160;8.202;2022-08-03T11:21:49;46.15;;;4.63;;
41059;SDS011;26811;53.160;8.202;2022-08-03T11:26:59;39.38;;;4.22;;
41059;SDS011;26811;53.160;8.202;2022-08-03T11:43:02;46.03;;;4.25;;
41059;SDS011;26811;53.160;8.202;2022-08-03T11:48:14;38.80;;;4.57;;
41059;SDS011;26811;53.160;8.202;2022-08-03T11:53:15;45.17;;;4.65;;
41059;SDS011;26811;53.160;8.202;2022-08-03T11:58:18;55.53;;;4.55;;
41059;SDS011;26811;53.160;8.202;2022-08-03T12:03:20;55.85;;;4.63;;
41059;SDS011;26811;53.160;8.202;2022-08-03T12:18:39;49.60;;;5.18;;
41059;SDS011;26811;53.160;8.202;2022-08-03T12:23:40;45.75;;;4.32;;
41059;SDS011;26811;53.160;8.202;2022-08-03T12:28:47;35.92;;;4.47;;
41059;SDS011;26811;53.160;8.202;2022-08-03T12:33:56;41.78;;;4.30;;
41059;SDS011;26811;53.160;8.202;2022-08-03T12:39:06;42.00;;;4.68;;
41059;SDS011;26811;53.160;8.202;2022-08-03T12:44:08;34.95;;;3.85;;
41059;SDS011;26811;53.160;8.202;2022-08-03T12:49:09;48.15;;;4.25;;
41059;SDS011;26811;53.160;8.202;2022-08-03T12:54:18;49.70;;;4.68;;
41059;SDS011;26811;53.160;8.202;2022-08-03T12:59:23;38.70;;;4.30;;
41059;SDS011;26811;53.160;8.202;2022-08-03T13:04:32;44.25;;;4.10;;
41059;SDS011;26811;53.160;8.202;2022-08-03T13:09:41;34.53;;;4.65;;
41059;SDS011;26811;53.160;8.202;2022-08-03T13:14:46;33.50;;;4.35;;
41059;SDS011;26811;53.160;8.202;2022-08-03T13:19:47;36.17;;;3.63;;
41059;SDS011;26811;53.160;8.202;2022-08-03T13:24:51;34.75;;;4.05;;
41059;SDS011;26811;53.160;8.202;2022-08-03T13:29:54;47.22;;;4.40;;
41059;SDS011;26811;53.160;8.202;2022-08-03T13:34:58;36.63;;;3.95;;
41059;SDS011;26811;53.160;8.202;2022-08-03T13:39:59;41.83;;;4.10;;
41059;SDS011;26811;53.160;8.202;2022-08-03T13:45:00;48.13;;;5.03;;
41059;SDS011;26811;53.160;8.202;2022-08-03T13:50:02;36.78;;;4.13;;
41059;SDS011;26811;53.160;8.202;2022-08-03T13:55:03;40.30;;;3.65;;
41059;SDS011;26811;53.160;8.202;2022-08-03T14:00:05;44.00;;;4.00;;
41059;SDS011;26811;53.160;8.202;2022-08-03T14:05:07;40.80;;;4.50;;
41059;SDS011;26811;53.160;8.202;2022-08-03T14:10:07;39.70;;;3.95;;
41059;SDS011;26811;53.160;8.202;2022-08-03T14:15:08;41.00;;;4.07;;
41059;SDS011;26811;53.160;8.202;2022-08-03T14:20:09;45.15;;;4.50;;
41059;SDS011;26811;53.160;8.202;2022-08-03T14:25:11;31.27;;;3.97;;
41059;SDS011;26811;53.160;8.202;2022-08-03T14:30:12;39.58;;;4.20;;
41059;SDS011;26811;53.160;8.202;2022-08-03T14:35:12;43.90;;;4.15;;
41059;SDS011;26811;53.160;8.202;2022-08-03T14:40:13;41.28;;;3.88;;
41059;SDS011;26811;53.160;8.202;2022-08-03T14:45:14;36.85;;;4.60;;
41059;SDS011;26811;53.160;8.202;2022-08-03T14:50:14;31.98;;;3.85;;
41059;SDS011;26811;53.160;8.202;2022-08-03T14:55:15;31.35;;;4.18;;
41059;SDS011;26811;53.160;8.202;2022-08-03T15:00:15;37.58;;;3.90;;
41059;SDS011;26811;53.160;8.202;2022-08-03T15:05:16;33.47;;;3.90;;
41059;SDS011;26811;53.160;8.202;2022-08-03T15:10:16;49.22;;;4.25;;
41059;SDS011;26811;53.160;8.202;2022-08-03T15:15:17;46.95;;;4.22;;
41059;SDS011;26811;53.160;8.202;2022-08-03T15:20:18;35.53;;;4.18;;
41059;SDS011;26811;53.160;8.202;2022-08-03T15:25:18;37.47;;;3.83;;
41059;SDS011;26811;53.160;8.202;2022-08-03T15:30:19;37.28;;;3.45;;
41059;SDS011;26811;53.160;8.202;2022-08-03T15:35:20;38.00;;;3.95;;
41059;SDS011;26811;53.160;8.202;2022-08-03T15:40:20;28.65;;;4.20;;
41059;SDS011;26811;53.160;8.202;2022-08-03T15:45:21;33.58;;;3.92;;
41059;SDS011;26811;53.160;8.202;2022-08-03T15:50:21;37.47;;;4.43;;
41059;SDS011;26811;53.160;8.202;2022-08-03T15:55:22;34.45;;;3.85;;
41059;SDS011;26811;53.160;8.202;2022-08-03T16:00:23;32.50;;;4.25;;
41059;SDS011;26811;53.160;8.202;2022-08-03T16:05:23;39.28;;;3.78;;
41059;SDS011;26811;53.160;8.202;2022-08-03T16:10:24;45.13;;;3.95;;
41059;SDS011;26811;53.160;8.202;2022-08-03T16:15:27;39.83;;;4.22;;
41059;SDS011;26811;53.160;8.202;2022-08-03T16:20:28;43.33;;;4.60;;
41059;SDS011;26811;53.160;8.202;2022-08-03T16:25:28;36.60;;;3.95;;
41059;SDS011;26811;53.160;8.202;2022-08-03T16:30:29;37.67;;;4.43;;
41059;SDS011;26811;53.160;8.202;2022-08-03T16:35:29;34.63;;;4.40;;
41059;SDS011;26811;53.160;8.202;2022-08-03T16:40:30;46.58;;;4.63;;
41059;SDS011;26811;53.160;8.202;2022-08-03T16:50:31;33.17;;;4.30;;
41059;SDS011;26811;53.160;8.202;2022-08-03T16:55:33;58.38;;;5.05;;
41059;SDS011;26811;53.160;8.202;2022-08-03T17:00:34;45.25;;;4.32;;
41059;SDS011;26811;53.160;8.202;2022-08-03T17:05:35;47.08;;;4.93;;
41059;SDS011;26811;53.160;8.202;2022-08-03T17:15:39;39.37;;;4.27;;
41059;SDS011;26811;53.160;8.202;2022-08-03T17:20:43;42.25;;;5.28;;
41059;SDS011;26811;53.160;8.202;2022-08-03T17:25:45;36.53;;;4.82;;
41059;SDS011;26811;53.160;8.202;2022-08-03T17:30:46;34.50;;;4.22;;
41059;SDS011;26811;53.160;8.202;2022-08-03T17:36:06;29.25;;;4.18;;
41059;SDS011;26811;53.160;8.202;2022-08-03T17:41:07;34.28;;;4.63;;
41059;SDS011;26811;53.160;8.202;2022-08-03T17:46:08;35.13;;;4.63;;
41059;SDS011;26811;53.160;8.202;2022-08-03T17:51:29;53.22;;;9.70;;
41059;SDS011;26811;53.160;8.202;2022-08-03T18:02:09;56.70;;;11.15;;
41059;SDS011;26811;53.160;8.202;2022-08-03T18:07:44;57.90;;;12.32;;
41059;SDS011;26811;53.160;8.202;2022-08-03T18:12:53;62.83;;;13.07;;
41059;SDS011;26811;53.160;8.202;2022-08-03T18:18:03;68.55;;;12.85;;
41059;SDS011;26811;53.160;8.202;2022-08-03T18:23:05;72.47;;;13.55;;
41059;SDS011;26811;53.160;8.202;2022-08-03T18:28:07;69.90;;;12.37;;
41059;SDS011;26811;53.160;8.202;2022-08-03T18:33:10;76.50;;;13.90;;
41059;SDS011;26811;53.160;8.202;2022-08-03T18:38:12;74.65;;;13.32;;
41059;SDS011;26811;53.160;8.202;2022-08-03T18:43:14;65.63;;;13.85;;
41059;SDS011;26811;53.160;8.202;2022-08-03T18:48:22;68.05;;;13.55;;
41059;SDS011;26811;53.160;8.202;2022-08-03T18:53:58;72.80;;;14.15;;
41059;SDS011;26811;53.160;8.202;2022-08-03T19:04:13;83.22;;;14.02;;
41059;SDS011;26811;53.160;8.202;2022-08-03T19:09:32;79.85;;;14.10;;
41059;SDS011;26811;53.160;8.202;2022-08-03T19:14:39;84.03;;;15.10;;
41059;SDS011;26811;53.160;8.202;2022-08-03T19:19:44;82.00;;;14.07;;
41059;SDS011;26811;53.160;8.202;2022-08-03T19:24:47;68.65;;;14.75;;
41059;SDS011;26811;53.160;8.202;2022-08-03T19:29:50;69.32;;;13.90;;
41059;SDS011;26811;53.160;8.202;2022-08-03T19:34:54;80.00;;;14.95;;
41059;SDS011;26811;53.160;8.202;2022-08-03T19:39:56;74.25;;;14.88;;
41059;SDS011;26811;53.160;8.202;2022-08-03T19:45:06;74.43;;;17.95;;
41059;SDS011;26811;53.160;8.202;2022-08-03T19:50:08;86.20;;;15.70;;
41059;SDS011;26811;53.160;8.202;2022-08-03T19:55:09;89.30;;;18.00;;
41059;SDS011;26811;53.160;8.202;2022-08-03T20:00:10;85.82;;;15.45;;
41059;SDS011;26811;53.160;8.202;2022-08-03T20:05:12;78.40;;;15.93;;
41059;SDS011;26811;53.160;8.202;2022-08-03T20:10:12;91.65;;;16.58;;
41059;SDS011;26811;53.160;8.202;2022-08-03T20:15:14;104.25;;;16.88;;
41059;SDS011;26811;53.160;8.202;2022-08-03T20:20:22;71.95;;;16.10;;
41059;SDS011;26811;53.160;8.202;2022-08-03T20:25:28;103.53;;;18.83;;
41059;SDS011;26811;53.160;8.202;2022-08-03T20:30:31;98.30;;;17.83;;
41059;SDS011;26811;53.160;8.202;2022-08-03T20:35:32;101.47;;;19.90;;
41059;SDS011;26811;53.160;8.202;2022-08-03T20:40:32;100.28;;;20.77;;
41059;SDS011;26811;53.160;8.202;2022-08-03T20:45:33;118.38;;;22.90;;
41059;SDS011;26811;53.160;8.202;2022-08-03T20:50:34;112.38;;;21.98;;
41059;SDS011;26811;53.160;8.202;2022-08-03T20:55:37;110.07;;;21.75;;
41059;SDS011;26811;53.160;8.202;2022-08-03T21:00:41;128.48;;;23.80;;
41059;SDS011;26811;53.160;8.202;2022-08-03T21:05:43;128.43;;;23.67;;
41059;SDS011;26811;53.160;8.202;2022-08-03T21:10:46;114.18;;;23.90;;
41059;SDS011;26811;53.160;8.202;2022-08-03T21:15:48;123.87;;;24.37;;
41059;SDS011;26811;53.160;8.202;2022-08-03T21:20:50;125.70;;;23.27;;
41059;SDS011;26811;53.160;8.202;2022-08-03T21:25:51;136.10;;;25.98;;
41059;SDS011;26811;53.160;8.202;2022-08-03T21:30:52;136.10;;;26.60;;
41059;SDS011;26811;53.160;8.202;2022-08-03T21:35:53;125.63;;;26.45;;
41059;SDS011;26811;53.160;8.202;2022-08-03T21:40:54;113.22;;;24.98;;
41059;SDS011;26811;53.160;8.202;2022-08-03T21:45:59;127.00;;;27.23;;
41059;SDS011;26811;53.160;8.202;2022-08-03T21:51:03;135.02;;;28.92;;
41059;SDS011;26811;53.160;8.202;2022-08-03T21:56:05;119.55;;;26.77;;
41059;SDS011;26811;53.160;8.202;2022-08-03T22:01:07;137.57;;;28.05;;
41059;SDS011;26811;53.160;8.202;2022-08-03T22:06:09;168.32;;;30.38;;
41059;SDS011;26811;53.160;8.202;2022-08-03T22:11:10;154.40;;;31.00;;
41059;SDS011;26811;53.160;8.202;2022-08-03T22:16:12;154.43;;;31.57;;
41059;SDS011;26811;53.160;8.202;2022-08-03T22:21:14;131.45;;;28.27;;
41059;SDS011;26811;53.160;8.202;2022-08-03T22:26:20;135.52;;;29.20;;
41059;SDS011;26811;53.160;8.202;2022-08-03T22:31:25;160.55;;;32.08;;
41059;SDS011;26811;53.160;8.202;2022-08-03T22:36:26;170.38;;;33.58;;
41059;SDS011;26811;53.160;8.202;2022-08-03T22:41:27;144.27;;;32.30;;
41059;SDS011;26811;53.160;8.202;2022-08-03T22:46:28;143.43;;;31.50;;
41059;SDS011;26811;53.160;8.202;2022-08-03T22:51:31;158.23;;;34.13;;
41059;SDS011;26811;53.160;8.202;2022-08-03T22:56:32;152.50;;;31.50;;
41059;SDS011;26811;53.160;8.202;2022-08-03T23:01:35;155.60;;;35.70;;
41059;SDS011;26811;53.160;8.202;2022-08-03T23:06:40;183.18;;;37.22;;
41059;SDS011;26811;53.160;8.202;2022-08-03T23:11:41;192.43;;;37.40;;
41059;SDS011;26811;53.160;8.202;2022-08-03T23:16:43;188.50;;;38.35;;
41059;SDS011;26811;53.160;8.202;2022-08-03T23:21:44;174.73;;;39.47;;
41059;SDS011;26811;53.160;8.202;2022-08-03T23:26:45;173.85;;;37.67;;
41059;SDS011;26811;53.160;8.202;2022-08-03T23:31:47;146.95;;;36.33;;
41059;SDS011;26811;53.160;8.202;2022-08-03T23:36:48;171.85;;;39.10;;
41059;SDS011;26811;53.160;8.202;2022-08-03T23:41:49;169.48;;;37.65;;
41059;SDS011;26811;53.160;8.202;2022-08-03T23:46:51;188.32;;;38.00;;
41059;SDS011;26811;53.160;8.202;2022-08-03T23:51:56;175.75;;;38.30;;
